Portada
METAR-TAF:

METAR-TAF

Aeropuertos :

Aeropuerto de Asturias

Avilés, España

latitud: 43-33N, longitud: 006-02W, altitud: 127 m

Observación

El informe se hizo hace 26 minutos, a las 14:00 UTC
Viento 6 kt del este-noreste, variando entre norte y este-sureste
Temperatura 12°C
Humedad 67%
Presión 1034 hPa
Visibilidad 10 km o más
sin nubes por debajo de 1500 m y sin presencia de cumulonimbus.

METAR: LEAS 031400Z 06006KT 010V120 CAVOK 12/06 Q1034 NOSIG

Hora: 15:26 (14:26 UTC)

Pronóstico

El informe se hizo hace 6 horas y 26 minutos, a las 08:00 UTC
Pronóstico válido del 03 a las 09 UTC al 04 a las 09 UTC
Viento 7 kt del este-sureste
Visibilidad 10 km o más
sin nubes por debajo de 1500 m y sin presencia de cumulonimbus.
Probabilidad 30% :
Temporalmente
del 03 a las 21 UTC al 04 a las 04 UTC
Visibilidad: 3000 m
Cielo nuboso a una altura de 1000 ft
neblina

TAF: LEAS 030800Z 0309/0409 11007KT CAVOK TX13/0314Z TN02/0404Z PROB30 TEMPO 0321/0404 3000 BR BKN010

Observaciones y pronósticos meteorológicos de más de 4000 aeropuertos (mensajes METAR y TAF).

Los puntos amarillos y rojos representan las estaciones disponibles.

Ponga el ratón en el punto deseado para ver el nombre de la estación.

Haga clic para ver las observaciones y los pronósticos meteorológicos.

Para cambiar el mapa : haga clic en los botones verdes con una cruz de color negro para hacer un zoom, en el botón verde con un guión para alejar o en las flechas verdes para mapas adyacentes.


METAR-TAF: